CG Spencer — NWHE — position and weather

sailwx.info

Track history (hours):
 
Tides and Currents Weather Stations Pressure Air Temp Water Temp Dewpoint Dewpoint Depression Visibility Wind Speed Wind Dir Waves Ship Positions

CG Spencer

Last reported at 2018-May-23 12:26 UTC. Time now 2018-May-28 01:35 UTC.
Position N 42°22' W 071°03'.

Length 82 m; draft 4.3 m.

Type: Law enforcement. MMSI: 367258000.

Date/timePositionNaut miles runAvg speedWind from/ knotsBaromVisibWave heightAir tempDewpointWater temp
2018-May-23 12:26N 42°22' W 071°03'0 0.4
2018-May-23 12:00N 42°22' W 071°03'3 6.4
2018-May-23 11:30N 42°20' W 070°59'1 2.1
2018-May-23 10:57N 42°20' W 070°58'0 0.0
2018-May-23 10:27N 42°20' W 070°58'0 0.0
2018-May-23 09:59N 42°20' W 070°58'0 0.0
2018-May-23 09:29N 42°20' W 070°58'0 0.0
2018-May-23 08:59N 42°20' W 070°58'0 0.0
2018-May-23 08:29N 42°20' W 070°58'0 0.0
2018-May-23 07:59N 42°20' W 070°58'0 0.0
2018-May-23 07:29N 42°20' W 070°58'0 0.0
2018-May-23 07:00N 42°20' W 070°58'0 0.0
2018-May-23 06:26N 42°20' W 070°58'0 0.0
2018-May-23 06:00N 42°20' W 070°58'0 0.0
2018-May-23 05:30N 42°20' W 070°58'0 0.0
2018-May-23 05:00N 42°20' W 070°58'0 0.0
2018-May-23 04:27N 42°20' W 070°58'0 0.0
2018-May-23 04:00N 42°20' W 070°58'0 0.0
2018-May-23 03:29N 42°20' W 070°58'0 0.0
2018-May-23 02:59N 42°20' W 070°58'0 0.0
2018-May-23 02:29N 42°20' W 070°58'0 0.0
2018-May-23 02:00N 42°20' W 070°58'0 0.0
2018-May-23 01:29N 42°20' W 070°58'0 0.0
2018-May-23 00:59N 42°20' W 070°58'0 0.0
2018-May-23 00:29N 42°20' W 070°58'0 0.0
2018-May-22 23:59N 42°20' W 070°58'0 0.0
2018-May-22 23:29N 42°20' W 070°58'0 0.0
2018-May-22 22:59N 42°20' W 070°58'0 0.0
2018-May-22 22:30N 42°20' W 070°58'0 0.0
2018-May-22 22:00N 42°20' W 070°58'0 0.0
2018-May-22 21:30N 42°20' W 070°58'0 0.0
2018-May-22 20:59N 42°20' W 070°58'0 0.1
2018-May-22 20:29N 42°20' W 070°58'0 0.1
2018-May-22 19:59N 42°20' W 070°58'4 7.7
2018-May-22 19:30N 42°23' W 070°54'713.3
2018-May-22 19:00N 42°25' W 070°46'713.2
2018-May-22 18:30N 42°28' W 070°37'4 7.9
2018-May-22 18:00N 42°31' W 070°34'4 8.7
2018-May-22 17:30N 42°35' W 070°31'17 0.3
2018-May-20 17:02N 42°21' W 070°45'0 8.9
2018-May-20 17:00N 42°22' W 070°45'5 9.1
2018-May-20 16:30N 42°23' W 070°51'2 4.5
2018-May-20 16:00N 42°23' W 070°54'3 5.1
2018-May-20 15:30N 42°23' W 070°51'4 7.3
2018-May-20 15:00N 42°24' W 070°46'4 7.9
2018-May-20 14:30N 42°25' W 070°41'4 8.0
2018-May-20 14:00N 42°26' W 070°35'4 8.3
2018-May-20 13:30N 42°27' W 070°30'4 7.3
2018-May-20 13:00N 42°28' W 070°25'3 5.8
2018-May-20 12:30N 42°28' W 070°21'3 5.8
2018-May-20 12:00N 42°29' W 070°17'2 5.0
2018-May-20 11:30N 42°28' W 070°14'3 5.8
2018-May-20 11:01N 42°31' W 070°16'3 5.2
2018-May-20 10:30N 42°33' W 070°19'3 5.8
2018-May-20 10:00N 42°30' W 070°17'3 5.8
2018-May-20 09:30N 42°27' W 070°15'0 0.3
2018-May-20 09:00N 42°28' W 070°16'3 5.8
2018-May-20 08:30N 42°30' W 070°18'3 5.7
2018-May-20 08:00N 42°33' W 070°19'2 4.9
2018-May-20 07:30N 42°30' W 070°18'3 6.1
2018-May-20 07:00N 42°27' W 070°17'3 5.5
2018-May-20 06:30N 42°29' W 070°20'1 2.3
2018-May-20 06:00N 42°29' W 070°21'3 6.0
2018-May-20 05:30N 42°28' W 070°18'3 5.8
2018-May-20 05:00N 42°27' W 070°14'3 6.2
2018-May-20 04:30N 42°25' W 070°10'3 6.6
2018-May-20 04:00N 42°24' W 070°06'3 6.8
2018-May-20 03:30N 42°22' W 070°02'35 0.8
2018-May-18 06:50N 42°49' W 069°32'17 6.5
2018-May-18 04:16N 42°33' W 069°25'2 6.4
2018-May-18 03:59N 42°31' W 069°24'6 6.4
2018-May-18 03:06N 42°26' W 069°22'6 6.1
2018-May-18 02:06N 42°20' W 069°20'1 6.1
2018-May-18 02:00N 42°20' W 069°19'3 6.0
2018-May-18 01:30N 42°17' W 069°19'4 6.2
2018-May-18 00:56N 42°13' W 069°18'  
Track history (hours):
 
Tides and Currents Weather Stations Pressure Air Temp Water Temp Dewpoint Dewpoint Depression Visibility Wind Speed Wind Dir Waves Ship Positions

CG Spencer

Last reported at 2018-May-23 12:26 UTC. Time now 2018-May-28 01:35 UTC.
Position N 42°22' W 071°03'.

Length 82 m; draft 4.3 m.

Type: Law enforcement. MMSI: 367258000.

Date/timePositionNaut miles runAvg speedWind from/ knotsBaromVisibWave heightAir tempDewpointWater temp
2018-May-23 12:26N 42°22' W 071°03'0 0.4
2018-May-23 12:00N 42°22' W 071°03'3 6.4
2018-May-23 11:30N 42°20' W 070°59'1 2.1
2018-May-23 10:57N 42°20' W 070°58'0 0.0
2018-May-23 10:27N 42°20' W 070°58'0 0.0
2018-May-23 09:59N 42°20' W 070°58'0 0.0
2018-May-23 09:29N 42°20' W 070°58'0 0.0
2018-May-23 08:59N 42°20' W 070°58'0 0.0
2018-May-23 08:29N 42°20' W 070°58'0 0.0
2018-May-23 07:59N 42°20' W 070°58'0 0.0
2018-May-23 07:29N 42°20' W 070°58'0 0.0
2018-May-23 07:00N 42°20' W 070°58'0 0.0
2018-May-23 06:26N 42°20' W 070°58'0 0.0
2018-May-23 06:00N 42°20' W 070°58'0 0.0
2018-May-23 05:30N 42°20' W 070°58'0 0.0
2018-May-23 05:00N 42°20' W 070°58'0 0.0
2018-May-23 04:27N 42°20' W 070°58'0 0.0
2018-May-23 04:00N 42°20' W 070°58'0 0.0
2018-May-23 03:29N 42°20' W 070°58'0 0.0
2018-May-23 02:59N 42°20' W 070°58'0 0.0
2018-May-23 02:29N 42°20' W 070°58'0 0.0
2018-May-23 02:00N 42°20' W 070°58'0 0.0
2018-May-23 01:29N 42°20' W 070°58'0 0.0
2018-May-23 00:59N 42°20' W 070°58'0 0.0
2018-May-23 00:29N 42°20' W 070°58'0 0.0
2018-May-22 23:59N 42°20' W 070°58'0 0.0
2018-May-22 23:29N 42°20' W 070°58'0 0.0
2018-May-22 22:59N 42°20' W 070°58'0 0.0
2018-May-22 22:30N 42°20' W 070°58'0 0.0
2018-May-22 22:00N 42°20' W 070°58'0 0.0
2018-May-22 21:30N 42°20' W 070°58'0 0.0
2018-May-22 20:59N 42°20' W 070°58'0 0.1
2018-May-22 20:29N 42°20' W 070°58'0 0.1
2018-May-22 19:59N 42°20' W 070°58'4 7.7
2018-May-22 19:30N 42°23' W 070°54'713.3
2018-May-22 19:00N 42°25' W 070°46'713.2
2018-May-22 18:30N 42°28' W 070°37'4 7.9
2018-May-22 18:00N 42°31' W 070°34'4 8.7
2018-May-22 17:30N 42°35' W 070°31'17 0.3
2018-May-20 17:02N 42°21' W 070°45'0 8.9
2018-May-20 17:00N 42°22' W 070°45'5 9.1
2018-May-20 16:30N 42°23' W 070°51'2 4.5
2018-May-20 16:00N 42°23' W 070°54'3 5.1
2018-May-20 15:30N 42°23' W 070°51'4 7.3
2018-May-20 15:00N 42°24' W 070°46'4 7.9
2018-May-20 14:30N 42°25' W 070°41'4 8.0
2018-May-20 14:00N 42°26' W 070°35'4 8.3
2018-May-20 13:30N 42°27' W 070°30'4 7.3
2018-May-20 13:00N 42°28' W 070°25'3 5.8
2018-May-20 12:30N 42°28' W 070°21'3 5.8
2018-May-20 12:00N 42°29' W 070°17'2 5.0
2018-May-20 11:30N 42°28' W 070°14'3 5.8
2018-May-20 11:01N 42°31' W 070°16'3 5.2
2018-May-20 10:30N 42°33' W 070°19'3 5.8
2018-May-20 10:00N 42°30' W 070°17'3 5.8
2018-May-20 09:30N 42°27' W 070°15'0 0.3
2018-May-20 09:00N 42°28' W 070°16'3 5.8
2018-May-20 08:30N 42°30' W 070°18'3 5.7
2018-May-20 08:00N 42°33' W 070°19'2 4.9
2018-May-20 07:30N 42°30' W 070°18'3 6.1
2018-May-20 07:00N 42°27' W 070°17'3 5.5
2018-May-20 06:30N 42°29' W 070°20'1 2.3
2018-May-20 06:00N 42°29' W 070°21'3 6.0
2018-May-20 05:30N 42°28' W 070°18'3 5.8
2018-May-20 05:00N 42°27' W 070°14'3 6.2
2018-May-20 04:30N 42°25' W 070°10'3 6.6
2018-May-20 04:00N 42°24' W 070°06'3 6.8
2018-May-20 03:30N 42°22' W 070°02'35 0.8
2018-May-18 06:50N 42°49' W 069°32'17 6.5
2018-May-18 04:16N 42°33' W 069°25'2 6.4
2018-May-18 03:59N 42°31' W 069°24'6 6.4
2018-May-18 03:06N 42°26' W 069°22'6 6.1
2018-May-18 02:06N 42°20' W 069°20'1 6.1
2018-May-18 02:00N 42°20' W 069°19'3 6.0
2018-May-18 01:30N 42°17' W 069°19'4 6.2
2018-May-18 00:56N 42°13' W 069°18'  

Dump ship's entire track history